Jump to content

  •  

AMERICAN AIRLINES FLIGHT AA2295 FLOWN ON 12-03-2017 BY CAPTAIN JIM BOERMAN

Pilot StatsCaptain Jim Boerman (LDP136) • 4,686.4 total hours • 1,423 total flights [View Logbook]
FLIGHT DETAILS
StatusReceived and approved on 2017-12-03 at 12:12:59
Origin AirportHewanorra Intl (TLPL) • Vieuxfort, Saint Lucia (14 feet MSL)
Filed Flight PlanFLIGHT PLANNER OFFLINE
Destination AirportMiami Intl (KMIA) • Miami, Florida, United States (8 feet MSL)
Alternate AirportSouthwest Florida Intl (KRSW) • Ft Myers, Florida, United States (30 feet MSL)
AirlineAmerican Airlines
AircraftBoeing 757-200 | Winglets (75W / B757-200)
FS Aircraft UsedQWSim Boeing 757-200WL AA N611AM 2013 QWHDT
Cruising AltitudeFL340
Distance Flown1,308 nautical miles
Passengers Onboard85 passengers (45.70% full)
DEPARTURE DETAILS
Time Out09:40:02
Taxi Data209,799 lbs total with 35,398 lbs of fuel onboard
Takeoff Data09:51:54 (12 minutes after leaving gate/ramp) • 208,290 lbs total • 8° pitch at 171 knots
Departure METARTLPL 031300Z 10013KT 9999 SCT025 30/24 Q1013 NOSIG
ARRIVAL DETAILS
Landing Data12:22:46 • 181,573 lbs total • 5° pitch doing 119 knots at a rate of -202.23 feet/minute with 6,568 lbs of fuel onboard
Time In12:28:48 (6 minutes after landing)
Ramp Weight180,969 lbs total
Total Fuel Used28,830 lbs
Total Block Time03:44:36 (3.7 hours) while 18 minutes were spent on the ground
Arrival METARKMIA 031653Z 07009KT 10SM SCT037 SCT049 28/18 A3010 RMK AO2 SLP191 T02780178 $
MISCELLANEOUS DETAILS
LiveDISPATCH Version4.8.3.1
FS Version
FSUIPC Version4.93
OS VersionWindows 7 32-bit
Screen Resolution1920 x 1080
Pilot's CommentsNo Comments Reported
FLIGHT MAP